createdAt,value
2022-10-18T00:01:01.356Z,9.93
2022-10-18T00:03:28.874Z,9.85
2022-10-18T00:05:56.505Z,9.07
2022-10-18T00:08:24.116Z,10.40
2022-10-18T00:10:51.598Z,11.50
2022-10-18T00:13:18.984Z,12.73
2022-10-18T00:16:10.096Z,8.77
2022-10-18T00:18:37.259Z,7.97
2022-10-18T00:21:12.735Z,17.10
2022-10-18T00:23:40.269Z,9.77
2022-10-18T00:26:11.682Z,11.20
2022-10-18T00:28:39.849Z,11.88
2022-10-18T00:31:23.572Z,16.65
2022-10-18T00:33:58.500Z,11.15
2022-10-18T00:36:27.327Z,11.65
2022-10-18T00:38:55.020Z,11.85
2022-10-18T00:41:25.636Z,13.32
2022-10-18T00:44:28.076Z,12.60
2022-10-18T00:47:07.159Z,15.27
2022-10-18T00:49:49.196Z,12.00
2022-10-18T00:52:43.039Z,9.85
2022-10-18T00:55:10.691Z,10.55
2022-10-18T00:57:40.283Z,13.70
2022-10-18T01:00:10.510Z,15.43
2022-10-18T01:02:40.282Z,11.60
2022-10-18T01:05:08.271Z,13.70
2022-10-18T01:07:59.929Z,15.60
2022-10-18T01:11:01.095Z,15.57
2022-10-18T01:13:50.060Z,17.23
2022-10-18T01:16:38.348Z,15.05
2022-10-18T01:19:39.048Z,18.05
2022-10-18T01:22:14.006Z,25.63
2022-10-18T01:27:49.212Z,16.45
2022-10-18T01:30:58.581Z,17.58
2022-10-18T01:33:43.989Z,16.80
2022-10-18T01:36:26.237Z,13.45
2022-10-18T01:38:57.313Z,17.40
2022-10-18T01:41:25.905Z,13.93
2022-10-18T01:44:02.387Z,15.98
2022-10-18T01:46:30.119Z,15.20
2022-10-18T01:48:58.476Z,15.20
2022-10-18T01:51:28.043Z,15.07
2022-10-18T01:53:55.503Z,17.02
2022-10-18T01:56:50.492Z,15.90
2022-10-18T01:59:55.096Z,22.30
2022-10-18T02:02:43.765Z,14.85
2022-10-18T02:05:28.929Z,16.13
2022-10-18T02:08:22.401Z,17.15
2022-10-18T02:10:53.943Z,14.57
2022-10-18T02:13:22.894Z,18.70
2022-10-18T02:16:19.605Z,17.42
2022-10-18T02:18:55.436Z,13.00
2022-10-18T02:21:24.782Z,15.77
2022-10-18T02:23:55.578Z,13.93
2022-10-18T02:26:22.976Z,13.80
2022-10-18T02:28:50.423Z,13.05
2022-10-18T02:31:31.303Z,16.67
2022-10-18T02:33:59.264Z,15.85
2022-10-18T02:36:39.375Z,13.80
2022-10-18T02:39:16.798Z,13.85
2022-10-18T02:41:44.335Z,14.45
2022-10-18T02:44:12.789Z,19.02
2022-10-18T02:46:40.579Z,16.38
2022-10-18T02:49:07.846Z,16.67
2022-10-18T02:51:35.709Z,18.35
2022-10-18T02:54:02.951Z,17.48
2022-10-18T02:56:30.281Z,20.83
2022-10-18T02:58:57.504Z,17.65
2022-10-18T03:01:24.684Z,15.95
2022-10-18T03:03:52.070Z,22.27
2022-10-18T03:06:19.436Z,22.27
2022-10-18T03:08:46.774Z,15.85
2022-10-18T03:11:14.419Z,18.27
2022-10-18T03:13:42.155Z,18.02
2022-10-18T03:16:10.523Z,18.40
2022-10-18T03:18:37.752Z,19.40
2022-10-18T03:21:08.496Z,22.27
2022-10-18T03:23:36.463Z,18.75
2022-10-18T03:26:04.727Z,24.33
2022-10-18T03:28:32.393Z,18.30
2022-10-18T03:31:05.956Z,19.58
2022-10-18T03:33:33.304Z,18.83
2022-10-18T03:36:00.551Z,21.35
2022-10-18T03:38:28.270Z,22.40
2022-10-18T03:40:55.894Z,19.90
2022-10-18T03:43:23.508Z,19.48
2022-10-18T03:45:50.949Z,22.27
2022-10-18T03:48:18.444Z,17.23
2022-10-18T03:50:45.651Z,20.63
2022-10-18T03:53:13.021Z,20.35
2022-10-18T03:55:40.680Z,17.77
2022-10-18T03:58:08.125Z,21.35
2022-10-18T04:00:35.688Z,20.35
2022-10-18T04:03:04.264Z,21.55
2022-10-18T04:05:31.642Z,22.85
2022-10-18T04:08:00.495Z,21.75
2022-10-18T04:10:29.200Z,21.33
2022-10-18T04:12:57.461Z,18.83
2022-10-18T04:15:25.644Z,15.18
2022-10-18T04:17:53.028Z,18.35
2022-10-18T04:20:20.138Z,27.70
2022-10-18T04:22:51.204Z,20.05
2022-10-18T04:25:19.226Z,17.85
2022-10-18T04:27:46.408Z,26.35
2022-10-18T04:30:13.486Z,28.55
2022-10-18T04:32:40.833Z,24.58
2022-10-18T04:35:08.294Z,27.30
2022-10-18T04:37:36.062Z,28.63
2022-10-18T04:40:04.465Z,31.98
2022-10-18T04:42:31.750Z,31.52
2022-10-18T04:44:58.830Z,31.85
2022-10-18T04:47:25.939Z,29.92
2022-10-18T04:49:53.155Z,31.15
2022-10-18T04:52:20.356Z,31.23
2022-10-18T04:54:47.721Z,30.45
2022-10-18T04:57:14.808Z,27.85
2022-10-18T04:59:43.320Z,29.08
2022-10-18T05:02:11.482Z,34.38
2022-10-18T05:04:38.690Z,30.00
2022-10-18T05:07:07.540Z,30.63
2022-10-18T05:09:34.980Z,31.88
2022-10-18T05:12:02.255Z,31.00
2022-10-18T05:14:30.844Z,28.23
2022-10-18T05:16:59.204Z,33.33
2022-10-18T05:19:27.778Z,30.92
2022-10-18T05:21:54.912Z,30.27
2022-10-18T05:24:25.455Z,30.23
2022-10-18T05:26:55.069Z,30.88
2022-10-18T05:29:24.134Z,29.40
2022-10-18T05:31:51.926Z,30.30
2022-10-18T05:34:20.784Z,30.13
2022-10-18T05:36:49.983Z,37.35
2022-10-18T05:39:17.076Z,36.78
2022-10-18T05:41:44.162Z,37.83
2022-10-18T05:44:11.477Z,30.48
2022-10-18T05:46:38.780Z,36.28
2022-10-18T05:49:06.106Z,35.72
2022-10-18T05:51:33.406Z,38.47
2022-10-18T05:54:00.959Z,29.05
2022-10-18T05:56:28.357Z,31.00
2022-10-18T05:58:55.501Z,30.10
2022-10-18T06:01:22.937Z,34.90
2022-10-18T06:03:50.867Z,31.92
2022-10-18T06:06:18.048Z,33.47
2022-10-18T06:08:45.237Z,36.22
2022-10-18T06:11:15.089Z,44.50
2022-10-18T06:13:46.877Z,36.08
2022-10-18T06:16:16.512Z,37.72
2022-10-18T06:18:43.901Z,30.42
2022-10-18T06:21:11.168Z,41.95
2022-10-18T06:23:38.412Z,32.35
2022-10-18T06:26:07.997Z,37.83
2022-10-18T06:28:36.659Z,31.50
2022-10-18T06:31:05.222Z,34.72
2022-10-18T06:33:34.637Z,28.27
2022-10-18T06:36:15.019Z,39.40
2022-10-18T06:38:45.013Z,34.20
2022-10-18T06:41:12.456Z,38.95
2022-10-18T06:43:40.818Z,46.50
2022-10-18T06:46:08.994Z,71.43
2022-10-18T06:48:38.836Z,76.07
2022-10-18T06:51:08.206Z,32.42
2022-10-18T06:53:44.247Z,37.08
2022-10-18T06:56:21.076Z,50.80
2022-10-18T06:58:48.316Z,31.98
2022-10-18T07:01:18.197Z,27.95
2022-10-18T07:03:47.466Z,35.22
2022-10-18T07:06:17.997Z,53.78
2022-10-18T07:08:46.120Z,24.15
2022-10-18T07:11:19.774Z,35.95
2022-10-18T07:13:47.094Z,41.38
2022-10-18T07:16:18.415Z,45.95
2022-10-18T07:18:51.267Z,29.65
2022-10-18T07:21:23.895Z,22.30
2022-10-18T07:23:52.290Z,37.35
2022-10-18T07:26:33.420Z,25.40
2022-10-18T07:29:05.372Z,48.00
2022-10-18T07:31:33.526Z,45.40
2022-10-18T07:34:01.331Z,40.22
2022-10-18T07:36:28.563Z,36.95
2022-10-18T07:38:57.572Z,41.00
2022-10-18T07:41:24.999Z,35.20
2022-10-18T07:43:53.325Z,43.90
2022-10-18T07:46:22.477Z,34.80
2022-10-18T07:48:50.410Z,30.88
2022-10-18T07:51:18.989Z,26.50
2022-10-18T07:53:46.550Z,23.35
2022-10-18T07:56:16.755Z,37.05
2022-10-18T07:58:45.416Z,29.33
2022-10-18T08:01:13.498Z,18.23
2022-10-18T08:03:43.743Z,33.03
2022-10-18T08:06:13.374Z,21.00
2022-10-18T08:08:41.423Z,20.35
2022-10-18T08:11:15.160Z,23.42
2022-10-18T08:13:43.171Z,19.58
2022-10-18T08:16:13.733Z,25.92
2022-10-18T08:18:41.873Z,18.08
2022-10-18T08:21:10.633Z,22.80
2022-10-18T08:23:38.623Z,19.67
2022-10-18T08:26:08.812Z,18.80
2022-10-18T08:28:38.062Z,14.25
2022-10-18T08:31:07.489Z,18.90
2022-10-18T08:33:36.350Z,15.40
2022-10-18T08:36:06.675Z,14.80
2022-10-18T08:38:36.244Z,17.90
2022-10-18T08:41:36.247Z,17.75
2022-10-18T08:44:07.436Z,12.25
2022-10-18T08:46:38.247Z,15.73
2022-10-18T08:49:06.931Z,14.90
2022-10-18T08:51:46.885Z,17.13
2022-10-18T08:54:19.363Z,13.73
2022-10-18T08:56:57.258Z,9.45
2022-10-18T08:59:25.598Z,10.98
2022-10-18T09:02:17.877Z,9.30
2022-10-18T09:05:03.761Z,11.00
2022-10-18T09:07:37.130Z,9.52
2022-10-18T09:10:30.008Z,11.45
2022-10-18T09:13:15.781Z,10.60
2022-10-18T09:15:55.805Z,13.93
2022-10-18T09:19:02.839Z,12.18
2022-10-18T09:22:15.033Z,11.20
2022-10-18T09:25:29.033Z,20.23
2022-10-18T09:28:09.099Z,11.13
2022-10-18T09:31:16.907Z,10.55
2022-10-18T09:34:02.700Z,16.10
2022-10-18T09:36:36.803Z,12.48
2022-10-18T09:39:17.028Z,11.90
2022-10-18T09:41:49.205Z,12.95
2022-10-18T09:44:22.664Z,10.07
2022-10-18T09:47:03.773Z,13.10
2022-10-18T09:49:41.809Z,10.32
2022-10-18T09:52:16.561Z,10.05
2022-10-18T09:54:51.174Z,6.85
2022-10-18T10:01:33.872Z,14.38
2022-10-18T10:04:01.543Z,11.82
2022-10-18T10:08:04.671Z,9.43
2022-10-18T10:10:33.068Z,11.35
2022-10-18T10:13:28.269Z,9.15
2022-10-18T10:15:57.979Z,6.30
2022-10-18T10:18:30.300Z,9.35
2022-10-18T10:21:05.851Z,11.10
2022-10-18T10:23:46.825Z,9.13
2022-10-18T10:26:25.100Z,9.80
2022-10-18T10:28:52.626Z,6.65
2022-10-18T10:31:27.360Z,8.20
2022-10-18T10:34:07.963Z,9.88
2022-10-18T10:36:46.358Z,8.50
2022-10-18T10:39:19.702Z,4.90
2022-10-18T10:41:50.300Z,7.18
2022-10-18T10:44:20.388Z,6.13
2022-10-18T10:46:50.850Z,5.95
2022-10-18T10:49:40.820Z,6.50
2022-10-18T10:52:28.833Z,7.72
2022-10-18T10:55:16.723Z,7.60
2022-10-18T10:57:51.796Z,5.80
2022-10-18T11:00:34.474Z,7.87
2022-10-18T11:03:33.818Z,5.53
2022-10-18T11:06:02.404Z,4.40
2022-10-18T11:08:40.542Z,4.53
2022-10-18T11:11:28.032Z,8.98
2022-10-18T11:14:26.304Z,4.53
2022-10-18T11:17:45.851Z,8.27
2022-10-18T11:20:41.803Z,5.82
2022-10-18T11:23:13.924Z,6.15
2022-10-18T11:25:58.926Z,5.85
2022-10-18T11:28:45.269Z,5.70
2022-10-18T11:31:23.395Z,4.95
2022-10-18T11:34:16.095Z,5.30
2022-10-18T11:36:56.221Z,5.30
2022-10-18T11:39:36.448Z,5.85
2022-10-18T11:42:27.704Z,6.13
2022-10-18T11:45:15.408Z,3.47
2022-10-18T11:47:59.140Z,5.82
2022-10-18T11:50:43.578Z,4.63
2022-10-18T11:53:52.004Z,7.13
2022-10-18T11:56:30.366Z,4.40
2022-10-18T11:59:22.710Z,7.22
2022-10-18T12:01:56.100Z,6.47
2022-10-18T12:04:49.008Z,7.75
2022-10-18T12:07:39.959Z,6.60
2022-10-18T12:10:09.910Z,3.88
2022-10-18T12:12:53.453Z,4.30
2022-10-18T12:15:24.362Z,8.02
2022-10-18T12:17:56.209Z,4.45
2022-10-18T12:20:30.396Z,5.70
2022-10-18T12:23:04.120Z,6.03
2022-10-18T12:25:38.755Z,4.78
2022-10-18T12:30:54.642Z,5.88
2022-10-18T12:33:28.682Z,7.22
2022-10-18T12:36:02.315Z,6.93
2022-10-18T12:38:34.715Z,9.15
2022-10-18T12:41:03.618Z,7.40
2022-10-18T12:43:36.946Z,5.97
2022-10-18T12:46:12.261Z,8.02
2022-10-18T12:48:45.721Z,10.00
2022-10-18T12:51:16.552Z,6.85
2022-10-18T12:53:46.468Z,9.13
2022-10-18T12:56:28.891Z,5.30
2022-10-18T12:59:14.508Z,6.90
2022-10-18T13:01:50.971Z,5.97
2022-10-18T13:04:33.844Z,5.65
2022-10-18T13:07:32.613Z,7.30
2022-10-18T13:10:13.100Z,5.57
2022-10-18T13:12:41.078Z,5.93
2022-10-18T13:15:36.236Z,6.63
2022-10-18T13:18:22.549Z,6.78
2022-10-18T13:21:18.715Z,5.32
2022-10-18T13:24:19.897Z,4.95
2022-10-18T13:30:11.912Z,4.55
2022-10-18T13:32:54.167Z,4.03
2022-10-18T13:35:55.801Z,3.83
2022-10-18T13:38:47.494Z,3.60
2022-10-18T13:41:16.648Z,4.93
2022-10-18T13:43:53.392Z,8.25
2022-10-18T13:46:32.916Z,4.93
2022-10-18T13:49:31.982Z,7.28
2022-10-18T13:52:17.541Z,7.53
2022-10-18T13:55:03.456Z,4.90
2022-10-18T13:57:54.207Z,6.10
2022-10-18T14:00:33.123Z,5.00
2022-10-18T14:03:37.919Z,9.30
2022-10-18T14:06:10.690Z,6.90
2022-10-18T14:08:56.882Z,6.28
2022-10-18T14:11:46.245Z,9.50
2022-10-18T14:14:38.962Z,7.65
2022-10-18T14:17:26.801Z,8.23
2022-10-18T14:20:29.445Z,9.13
2022-10-18T14:23:18.970Z,5.38
2022-10-18T14:25:46.883Z,9.43
2022-10-18T14:28:31.557Z,12.32
2022-10-18T14:31:16.027Z,5.07
2022-10-18T14:33:57.096Z,8.13
2022-10-18T14:36:27.957Z,8.68
2022-10-18T14:39:00.772Z,8.63
2022-10-18T14:41:29.174Z,5.88
2022-10-18T14:44:11.684Z,11.23
2022-10-18T14:47:03.165Z,9.77
2022-10-18T14:49:31.066Z,8.95
2022-10-18T14:52:00.473Z,9.40
2022-10-18T14:54:38.355Z,9.25
2022-10-18T14:57:07.232Z,7.85
2022-10-18T14:59:45.216Z,7.65
2022-10-18T15:02:21.896Z,9.02
2022-10-18T15:04:58.172Z,7.40
2022-10-18T15:07:28.922Z,6.30
2022-10-18T15:09:59.467Z,5.00
2022-10-18T15:12:29.624Z,7.28
2022-10-18T15:15:01.536Z,10.50
2022-10-18T15:17:31.885Z,9.77
2022-10-18T15:20:17.874Z,10.10
2022-10-18T15:22:46.944Z,5.95
2022-10-18T15:25:18.403Z,13.18
2022-10-18T15:27:52.162Z,10.30
2022-10-18T15:30:25.268Z,12.38
2022-10-18T15:32:55.925Z,8.55
2022-10-18T15:35:29.238Z,9.02
2022-10-18T15:37:58.354Z,7.07
2022-10-18T15:40:28.861Z,9.35
2022-10-18T15:42:58.424Z,7.30
2022-10-18T15:45:25.826Z,10.95
2022-10-18T15:48:11.506Z,9.85
2022-10-18T15:50:43.108Z,8.52
2022-10-18T15:53:24.373Z,9.85
2022-10-18T15:55:52.863Z,13.70
2022-10-18T15:58:32.211Z,14.13
2022-10-18T16:01:01.418Z,15.43
2022-10-18T16:03:29.072Z,12.55
2022-10-18T16:06:04.014Z,11.20
2022-10-18T16:08:32.493Z,10.90
2022-10-18T16:11:00.009Z,10.18
2022-10-18T16:13:27.817Z,8.38
2022-10-18T16:15:56.319Z,11.32
2022-10-18T16:18:25.319Z,10.35
2022-10-18T16:20:53.275Z,8.68
2022-10-18T16:23:22.199Z,7.18
2022-10-18T16:25:49.877Z,11.02
2022-10-18T16:28:22.882Z,12.57
2022-10-18T16:30:58.935Z,16.75
2022-10-18T16:33:27.217Z,8.70
2022-10-18T16:35:54.561Z,14.40
2022-10-18T16:38:48.213Z,10.65
2022-10-18T16:41:16.214Z,9.57
2022-10-18T16:43:45.324Z,8.40
2022-10-18T16:46:19.557Z,8.60
2022-10-18T16:48:49.260Z,10.80
2022-10-18T16:51:17.090Z,10.73
2022-10-18T16:53:44.501Z,12.60
2022-10-18T16:56:21.171Z,11.10
2022-10-18T16:58:49.415Z,10.55
2022-10-18T17:01:21.122Z,10.20
2022-10-18T17:03:49.097Z,8.13
2022-10-18T17:06:22.576Z,10.80
2022-10-18T17:08:51.019Z,9.77
2022-10-18T17:11:19.841Z,11.68
2022-10-18T17:13:47.783Z,7.00
2022-10-18T17:18:58.542Z,5.57
2022-10-18T17:21:28.027Z,5.53
2022-10-18T17:23:55.537Z,7.47
2022-10-18T17:26:31.446Z,6.18
2022-10-18T17:29:02.165Z,7.07
2022-10-18T17:31:30.829Z,7.82
2022-10-18T17:33:58.888Z,6.03
2022-10-18T17:36:28.450Z,5.50
2022-10-18T17:38:56.545Z,6.78
2022-10-18T17:41:24.007Z,8.82
2022-10-18T17:43:51.223Z,7.72
2022-10-18T17:46:19.904Z,10.48
2022-10-18T17:48:47.619Z,7.00
2022-10-18T17:51:17.376Z,8.07
2022-10-18T17:53:45.267Z,6.65
2022-10-18T17:56:13.540Z,7.55
2022-10-18T17:58:43.739Z,5.68
2022-10-18T18:01:14.978Z,6.90
2022-10-18T18:03:43.007Z,5.88
2022-10-18T18:06:19.649Z,9.77
2022-10-18T18:08:48.210Z,6.78
2022-10-18T18:11:17.131Z,6.45
2022-10-18T18:13:44.510Z,6.35
2022-10-18T18:16:23.735Z,5.85
2022-10-18T18:18:57.186Z,7.07
2022-10-18T18:21:25.820Z,6.47
2022-10-18T18:23:53.702Z,5.22
2022-10-18T18:26:22.686Z,6.65
2022-10-18T18:28:50.179Z,4.95
2022-10-18T18:31:20.328Z,5.68
2022-10-18T18:33:47.527Z,6.07
2022-10-18T18:36:14.733Z,6.43
2022-10-18T18:38:45.043Z,5.18
2022-10-18T18:41:17.987Z,5.70
2022-10-18T18:43:49.980Z,6.40
2022-10-18T18:46:17.186Z,5.00
2022-10-18T18:48:45.317Z,4.70
2022-10-18T18:51:15.314Z,4.75
2022-10-18T18:53:44.861Z,4.65
2022-10-18T18:56:16.044Z,6.15
2022-10-18T18:58:46.341Z,9.25
2022-10-18T19:01:17.620Z,8.55
2022-10-18T19:03:46.740Z,5.80
2022-10-18T19:06:16.979Z,6.32
2022-10-18T19:08:45.370Z,7.18
2022-10-18T19:11:15.350Z,8.38
2022-10-18T19:13:43.310Z,4.82
2022-10-18T19:16:18.300Z,6.93
2022-10-18T19:18:53.443Z,6.80
2022-10-18T19:21:21.781Z,4.70
2022-10-18T19:23:50.580Z,7.70
2022-10-18T19:26:32.339Z,7.30
2022-10-18T19:29:24.772Z,8.50
2022-10-18T19:31:54.669Z,9.18
2022-10-18T19:34:23.748Z,5.25
2022-10-18T19:36:54.420Z,6.03
2022-10-18T19:39:32.376Z,5.28
2022-10-18T19:42:03.424Z,7.55
2022-10-18T19:44:33.934Z,5.80
2022-10-18T19:47:02.787Z,5.70
2022-10-18T19:49:30.155Z,5.97
2022-10-18T19:51:57.660Z,6.40
2022-10-18T19:54:25.287Z,7.93
2022-10-18T19:56:52.920Z,8.27
2022-10-18T19:59:20.311Z,6.72
2022-10-18T20:01:48.497Z,8.18
2022-10-18T20:04:16.422Z,6.82
2022-10-18T20:06:44.158Z,7.40
2022-10-18T20:09:16.277Z,4.53
2022-10-18T20:11:47.032Z,4.45
2022-10-18T20:14:14.732Z,6.00
2022-10-18T20:16:41.969Z,8.95
2022-10-18T20:19:09.760Z,6.43
2022-10-18T20:21:37.305Z,7.32
2022-10-18T20:24:05.778Z,6.75
2022-10-18T20:26:36.056Z,6.68
2022-10-18T20:29:04.256Z,5.00
2022-10-18T20:31:34.937Z,4.40
2022-10-18T20:34:04.851Z,3.60
2022-10-18T20:36:33.013Z,5.53
2022-10-18T20:39:00.631Z,3.70
2022-10-18T20:41:41.316Z,4.22
2022-10-18T20:44:13.557Z,5.68
2022-10-18T20:46:41.167Z,6.22
2022-10-18T20:49:10.425Z,6.75
2022-10-18T20:51:37.726Z,4.53
2022-10-18T20:54:07.418Z,3.60
2022-10-18T20:56:36.650Z,5.70
2022-10-18T20:59:06.362Z,6.50
2022-10-18T21:01:35.204Z,5.68
2022-10-18T21:04:04.749Z,4.90
2022-10-18T21:06:34.463Z,6.38
2022-10-18T21:09:05.467Z,6.05
2022-10-18T21:11:37.730Z,7.43
2022-10-18T21:14:06.053Z,5.40
2022-10-18T21:16:36.109Z,5.60
2022-10-18T21:19:10.184Z,5.45
2022-10-18T21:21:37.804Z,7.07
2022-10-18T21:24:07.708Z,3.83
2022-10-18T21:26:35.924Z,4.78
2022-10-18T21:29:04.985Z,5.30
2022-10-18T21:31:39.324Z,4.63
2022-10-18T21:34:17.965Z,5.25
2022-10-18T21:36:47.543Z,4.78
2022-10-18T21:39:17.933Z,5.95
2022-10-18T21:41:45.645Z,4.35
2022-10-18T21:44:13.297Z,4.43
2022-10-18T21:46:43.131Z,6.72
2022-10-18T21:49:11.336Z,6.95
2022-10-18T21:51:38.938Z,4.10
2022-10-18T21:54:14.963Z,5.97
2022-10-18T21:56:42.454Z,6.55
2022-10-18T21:59:12.847Z,4.60
2022-10-18T22:01:40.796Z,7.93
2022-10-18T22:04:22.153Z,7.18
2022-10-18T22:06:50.125Z,7.13
2022-10-18T22:09:17.326Z,7.85
2022-10-18T22:11:49.193Z,5.88
2022-10-18T22:14:16.858Z,7.53
2022-10-18T22:16:44.009Z,7.07
2022-10-18T22:19:11.514Z,9.80
2022-10-18T22:21:38.997Z,8.23
2022-10-18T22:24:09.129Z,6.88
2022-10-18T22:26:39.058Z,7.80
2022-10-18T22:29:10.489Z,6.32
2022-10-18T22:31:40.147Z,7.97
2022-10-18T22:34:11.587Z,6.88
2022-10-18T22:36:39.118Z,7.43
2022-10-18T22:39:07.066Z,6.85
2022-10-18T22:41:35.270Z,6.50
2022-10-18T22:44:03.851Z,8.52
2022-10-18T22:46:33.054Z,8.57
2022-10-18T22:49:00.429Z,9.93
2022-10-18T22:51:28.068Z,8.98
2022-10-18T22:53:55.503Z,8.25
2022-10-18T22:56:24.472Z,9.68
2022-10-18T22:58:53.459Z,10.27
2022-10-18T23:01:23.184Z,8.27
2022-10-18T23:03:55.275Z,9.27
2022-10-18T23:06:25.754Z,11.60
2022-10-18T23:08:54.491Z,13.30
2022-10-18T23:11:21.832Z,10.40
2022-10-18T23:13:49.489Z,11.00
2022-10-18T23:16:17.676Z,10.10
2022-10-18T23:18:48.773Z,8.73
2022-10-18T23:21:18.757Z,7.55
2022-10-18T23:23:45.975Z,10.77
2022-10-18T23:26:19.718Z,8.02
2022-10-18T23:28:49.544Z,8.63
2022-10-18T23:31:21.110Z,8.90
2022-10-18T23:33:50.052Z,9.43
2022-10-18T23:36:20.212Z,9.73
2022-10-18T23:38:47.595Z,11.32
2022-10-18T23:41:16.420Z,14.70
2022-10-18T23:43:46.594Z,13.20
2022-10-18T23:46:14.956Z,12.13
2022-10-18T23:48:42.270Z,12.27
2022-10-18T23:51:10.038Z,13.18
2022-10-18T23:53:38.329Z,14.63
2022-10-18T23:56:10.674Z,14.52
2022-10-18T23:58:38.812Z,12.38
